createdAt,value
2023-03-23T00:01:57.556Z,977.89
2023-03-23T00:07:01.675Z,977.94
2023-03-23T00:12:05.840Z,977.83
2023-03-23T00:17:10.035Z,977.70
2023-03-23T00:22:14.201Z,977.72
2023-03-23T00:27:18.356Z,977.74
2023-03-23T00:32:22.533Z,977.82
2023-03-23T00:37:24.751Z,977.86
2023-03-23T00:42:28.954Z,977.79
2023-03-23T00:47:31.256Z,977.83
2023-03-23T00:52:35.392Z,977.97
2023-03-23T00:57:39.551Z,978.16
2023-03-23T01:02:43.712Z,978.23
2023-03-23T01:07:47.882Z,978.44
2023-03-23T01:12:52.002Z,978.64
2023-03-23T01:17:56.189Z,978.96
2023-03-23T01:23:00.573Z,979.20
2023-03-23T01:28:04.506Z,979.08
2023-03-23T01:33:08.649Z,978.99
2023-03-23T01:38:12.812Z,978.82
2023-03-23T01:43:16.978Z,978.78
2023-03-23T01:48:21.173Z,978.64
2023-03-23T01:53:25.302Z,978.70
2023-03-23T01:58:29.453Z,978.69
2023-03-23T02:03:33.614Z,978.45
2023-03-23T02:08:37.802Z,978.21
2023-03-23T02:13:41.918Z,978.13
2023-03-23T02:18:46.101Z,978.20
2023-03-23T02:23:50.249Z,978.00
2023-03-23T02:28:54.451Z,977.95
2023-03-23T02:33:56.706Z,978.15
2023-03-23T02:39:00.865Z,978.37
2023-03-23T02:44:05.035Z,978.16
2023-03-23T02:49:07.309Z,977.76
2023-03-23T02:54:11.511Z,977.52
2023-03-23T02:59:15.607Z,977.40
2023-03-23T03:04:19.750Z,977.22
2023-03-23T03:09:23.951Z,977.08
2023-03-23T03:14:28.096Z,977.14
2023-03-23T03:19:32.661Z,977.46
2023-03-23T03:24:36.430Z,977.33
2023-03-23T03:29:40.621Z,977.40
2023-03-23T03:34:44.766Z,977.43
2023-03-23T03:39:48.888Z,977.54
2023-03-23T03:44:53.086Z,977.80
2023-03-23T03:49:57.218Z,977.92
2023-03-23T03:55:01.359Z,978.14
2023-03-23T04:00:05.558Z,978.62
2023-03-23T04:05:09.701Z,978.94
2023-03-23T04:10:13.864Z,979.18
2023-03-23T04:15:18.025Z,979.48
2023-03-23T04:20:32.083Z,979.67
2023-03-23T04:25:26.346Z,979.84
2023-03-23T04:30:30.525Z,979.86
2023-03-23T04:35:32.861Z,979.89
2023-03-23T04:40:36.938Z,979.79
2023-03-23T04:45:39.652Z,980.00
2023-03-23T04:50:43.373Z,980.06
2023-03-23T04:55:47.541Z,980.19
2023-03-23T05:00:51.738Z,980.22
2023-03-23T05:05:55.841Z,980.26
2023-03-23T05:11:00.018Z,980.40
2023-03-23T05:16:04.193Z,980.56
2023-03-23T05:21:08.404Z,980.85
2023-03-23T05:26:12.513Z,980.76
2023-03-23T05:31:16.648Z,981.01
2023-03-23T05:36:20.865Z,981.17
2023-03-23T05:41:25.213Z,981.29
2023-03-23T05:46:29.120Z,981.64
2023-03-23T05:51:33.303Z,981.66
2023-03-23T05:56:37.481Z,981.80
2023-03-23T06:01:41.695Z,982.28
2023-03-23T06:11:49.920Z,982.38
2023-03-23T06:16:54.077Z,982.48
2023-03-23T06:21:58.254Z,982.47
2023-03-23T06:27:02.397Z,982.76
2023-03-23T06:32:06.587Z,982.81
2023-03-23T06:37:08.865Z,982.99
2023-03-23T06:42:13.026Z,983.12
2023-03-23T06:47:15.269Z,983.32
2023-03-23T06:52:19.455Z,983.48
2023-03-23T06:57:23.608Z,983.78
2023-03-23T07:02:27.776Z,983.92
2023-03-23T07:07:31.941Z,984.04
2023-03-23T07:12:36.082Z,984.37
2023-03-23T07:17:40.239Z,984.51
2023-03-23T07:22:44.397Z,984.83
2023-03-23T07:27:48.563Z,985.06
2023-03-23T07:32:52.751Z,985.56
2023-03-23T07:37:56.917Z,985.95
2023-03-23T07:43:01.068Z,986.51
2023-03-23T07:48:09.780Z,986.95
2023-03-23T07:53:09.365Z,987.31
2023-03-23T07:58:13.587Z,987.62
2023-03-23T08:03:17.732Z,988.03
2023-03-23T08:08:21.852Z,988.27
2023-03-23T08:13:26.109Z,988.51
2023-03-23T08:18:30.194Z,988.97
2023-03-23T08:23:34.348Z,989.11
2023-03-23T08:28:38.480Z,989.29
2023-03-23T08:33:40.786Z,989.55
2023-03-23T08:38:44.924Z,989.81
2023-03-23T08:43:47.221Z,990.10
2023-03-23T08:53:55.550Z,990.50
2023-03-23T08:58:59.795Z,990.71
2023-03-23T09:04:03.839Z,990.93
2023-03-23T09:09:08.003Z,991.11
2023-03-23T09:14:12.168Z,991.43
2023-03-23T09:19:16.312Z,991.59
2023-03-23T09:24:20.509Z,991.57
2023-03-23T09:29:24.653Z,991.64
2023-03-23T09:34:28.834Z,991.73
2023-03-23T09:39:33.011Z,991.74
2023-03-23T09:44:37.122Z,991.99
2023-03-23T09:49:42.376Z,992.28
2023-03-23T09:54:45.458Z,992.32
2023-03-23T09:59:49.601Z,992.11
2023-03-23T10:04:53.754Z,992.27
2023-03-23T10:09:57.928Z,992.50
2023-03-23T10:15:02.094Z,992.42
2023-03-23T10:20:06.280Z,992.63
2023-03-23T10:25:10.425Z,992.74
2023-03-23T10:30:14.630Z,992.53
2023-03-23T10:35:16.889Z,991.77
2023-03-23T10:40:22.174Z,990.04
2023-03-23T10:45:25.174Z,989.06
2023-03-23T10:50:29.302Z,987.91
2023-03-23T10:55:31.611Z,986.87
2023-03-23T11:05:39.909Z,984.72
2023-03-23T11:10:44.089Z,983.54
2023-03-23T11:15:48.222Z,982.49
2023-03-23T11:20:52.381Z,981.20
2023-03-23T11:25:57.009Z,979.88
2023-03-23T11:31:00.714Z,979.51
2023-03-23T11:36:04.913Z,979.24
2023-03-23T11:41:09.080Z,979.17
2023-03-23T11:46:13.202Z,979.28
2023-03-23T11:51:17.377Z,979.18
2023-03-23T11:56:21.554Z,979.18
2023-03-23T12:01:25.686Z,979.19
2023-03-23T12:06:29.822Z,979.26
2023-03-23T12:11:34.044Z,979.16
2023-03-23T12:16:38.158Z,979.17
2023-03-23T12:21:42.334Z,979.29
2023-03-23T12:26:46.468Z,979.18
2023-03-23T12:31:50.646Z,979.27
2023-03-23T12:36:54.845Z,979.41
2023-03-23T12:41:58.959Z,979.50
2023-03-23T12:47:01.253Z,979.53
2023-03-23T12:52:05.410Z,979.58
2023-03-23T12:57:09.559Z,979.88
2023-03-23T13:02:13.732Z,980.07
2023-03-23T13:07:16.018Z,980.49
2023-03-23T13:12:20.188Z,980.91
2023-03-23T13:17:24.328Z,980.96
2023-03-23T13:22:28.482Z,981.06
2023-03-23T13:27:32.659Z,980.98
2023-03-23T13:32:40.910Z,980.87
2023-03-23T13:37:40.937Z,980.64
2023-03-23T13:42:45.101Z,980.37
2023-03-23T13:47:49.278Z,980.42
2023-03-23T13:52:53.498Z,980.29
2023-03-23T13:57:57.663Z,980.20
2023-03-23T14:03:01.941Z,980.37
2023-03-23T14:08:05.942Z,980.48
2023-03-23T14:13:10.116Z,980.48
2023-03-23T14:18:14.240Z,980.51
2023-03-23T14:23:18.667Z,980.39
2023-03-23T14:28:22.555Z,980.53
2023-03-23T14:33:26.700Z,980.59
2023-03-23T14:38:30.881Z,980.77
2023-03-23T14:43:35.085Z,980.70
2023-03-23T14:48:39.219Z,980.33
2023-03-23T14:53:41.457Z,980.00
2023-03-23T14:58:45.653Z,980.04
2023-03-23T15:03:50.097Z,979.86
2023-03-23T15:08:52.051Z,979.72
2023-03-23T15:13:56.241Z,979.47
2023-03-23T15:19:00.402Z,979.42
2023-03-23T15:24:04.539Z,979.72
2023-03-23T15:29:08.715Z,979.90
2023-03-23T15:34:12.874Z,980.43
2023-03-23T15:39:17.053Z,981.34
2023-03-23T15:44:21.183Z,981.61
2023-03-23T15:49:25.382Z,981.62
2023-03-23T15:54:29.527Z,981.96
2023-03-23T15:59:33.713Z,982.15
2023-03-23T16:04:37.855Z,982.25
2023-03-23T16:09:42.032Z,982.32
2023-03-23T16:14:44.273Z,982.48
2023-03-23T16:19:48.441Z,983.39
2023-03-23T16:24:52.602Z,984.19
2023-03-23T16:30:03.895Z,984.58
2023-03-23T16:35:00.924Z,985.33
2023-03-23T16:40:05.035Z,985.27
2023-03-23T16:45:09.229Z,984.57
2023-03-23T16:50:11.493Z,984.28
2023-03-23T16:55:15.684Z,983.82
2023-03-23T17:00:19.787Z,983.18
2023-03-23T17:05:23.988Z,983.10
2023-03-23T17:10:28.140Z,982.56
2023-03-23T17:15:32.298Z,982.52
2023-03-23T17:20:36.437Z,982.41
2023-03-23T17:25:40.582Z,982.51
2023-03-23T17:30:44.763Z,982.48
2023-03-23T17:35:49.064Z,982.39
2023-03-23T17:40:53.110Z,982.23
2023-03-23T17:45:57.248Z,982.41
2023-03-23T17:51:01.430Z,982.74
2023-03-23T17:56:05.601Z,982.97
2023-03-23T18:01:09.764Z,983.51
2023-03-23T18:06:13.880Z,983.86
2023-03-23T18:11:18.053Z,984.31
2023-03-23T18:16:22.212Z,984.58
2023-03-23T18:21:26.388Z,984.98
2023-03-23T18:26:30.516Z,984.98
2023-03-23T18:31:34.747Z,985.35
2023-03-23T18:36:36.990Z,985.54
2023-03-23T18:41:41.133Z,985.47
2023-03-23T18:46:43.412Z,985.62
2023-03-23T18:51:47.549Z,985.78
2023-03-23T18:56:49.963Z,985.67
2023-03-23T19:01:54.093Z,985.82
2023-03-23T19:06:58.178Z,985.89
2023-03-23T19:12:02.345Z,986.02
2023-03-23T19:17:06.517Z,986.03
2023-03-23T19:22:10.638Z,986.09
2023-03-23T19:27:15.535Z,986.07
2023-03-23T19:32:18.958Z,985.87
2023-03-23T19:37:23.370Z,985.81
2023-03-23T19:42:27.297Z,985.63
2023-03-23T19:47:31.480Z,985.52
2023-03-23T19:52:35.715Z,985.20
2023-03-23T19:57:39.764Z,985.07
2023-03-23T20:02:43.970Z,984.93
2023-03-23T20:07:51.732Z,984.87
2023-03-23T20:12:52.249Z,985.03
2023-03-23T20:23:00.606Z,985.32
2023-03-23T20:28:04.784Z,985.44
2023-03-23T20:33:08.926Z,985.31
2023-03-23T20:38:13.071Z,985.11
2023-03-23T20:43:15.338Z,985.45
2023-03-23T20:48:19.486Z,985.46
2023-03-23T20:53:21.765Z,985.52
2023-03-23T20:58:25.939Z,985.47
2023-03-23T21:03:30.237Z,985.46
2023-03-23T21:08:34.254Z,985.42
2023-03-23T21:13:38.416Z,985.28
2023-03-23T21:18:42.554Z,985.36
2023-03-23T21:23:46.799Z,985.62
2023-03-23T21:28:50.937Z,985.72
2023-03-23T21:33:55.035Z,985.81
2023-03-23T21:38:59.234Z,985.83
2023-03-23T21:44:03.362Z,985.64
2023-03-23T21:49:07.542Z,985.05
2023-03-23T21:54:11.749Z,984.45
2023-03-23T21:59:15.841Z,984.03
2023-03-23T22:04:19.997Z,983.54
2023-03-23T22:09:24.145Z,982.94
2023-03-23T22:14:28.329Z,982.31
2023-03-23T22:19:32.455Z,981.79
2023-03-23T22:24:36.608Z,981.30
2023-03-23T22:29:40.794Z,980.99
2023-03-23T22:34:44.933Z,980.41
2023-03-23T22:39:47.234Z,979.96
2023-03-23T22:49:55.566Z,979.20
2023-03-23T22:54:59.697Z,978.91
2023-03-23T23:00:03.912Z,978.69
2023-03-23T23:05:08.035Z,978.47
2023-03-23T23:10:12.201Z,977.85
2023-03-23T23:15:16.374Z,977.45
2023-03-23T23:20:20.503Z,976.80
2023-03-23T23:25:24.690Z,976.23
2023-03-23T23:30:28.907Z,975.87
2023-03-23T23:35:33.065Z,975.55
2023-03-23T23:40:37.193Z,975.38
2023-03-23T23:45:41.367Z,975.27
2023-03-23T23:50:45.794Z,975.27
2023-03-23T23:55:49.760Z,975.26
